Portada
METAR-TAF:

METAR-TAF

Aeroports :

Dammam, Aràbia Saudita

latitud: 26-28N, longitud: 049-47E, altitud: 22 m

Observació

L'informe es va fer fa 31 minuts, a les 01:00 UTC
Vent 2 kt del Sud/Sud-Est
Temperatura 33°C
Humitat 100%
Pressió 995 hPa
Visibilitat: 4000 m
boirina

METAR: OEDF 270100Z 16002KT 4000 BR NSC 33/33 Q0995 NOSIG

Hora: 04:31 (01:31 UTC)

Pronòstic

L'informe es va fer fa 4 hores i 31 minuts, a les 21:00 UTC
Pronòstic vàlid del 27 a les 00 UTC al 28 a les 06 UTC
Vent 4 kt amb direcció variable
Visibilitat: 8000 m
Evolucionant progressivament
l' 27 a les 06 UTC al 27 a les 08 UTC
Vent 12 kt del Nord-Est
Visibilitat 10 km o més
sense núvols per sota de 1500 mi sense presència de cumulonimbus.

TAF: OEDF 262100Z 2700/2806 VRB04KT 8000 NSC BECMG 2706/2708 05012KT CAVOK

Observacions i pronòstics meteorològics de més de 4000 aeroports (METAR i TAF).

Les estacions disponibles són els punts grocs i vermells al mapa.

Posi el ratolí al punt desitjat per veure el nom de l'estació.

Feu clic per veure les observacions i els pronòstics meteorològics.

Per canviar el mapa: feu clic els botons verds amb una creu de color negre per apropar; al botó verd amb un guió per allunyar la imatge; o en les fletxes verdes per a mapes adjacents.


METAR-TAF: